createdAt,value
2023-03-19T00:00:33.902Z,7.37
2023-03-19T00:03:01.938Z,7.23
2023-03-19T00:05:29.927Z,6.57
2023-03-19T00:07:59.074Z,7.00
2023-03-19T00:10:27.000Z,6.17
2023-03-19T00:12:54.935Z,6.40
2023-03-19T00:15:22.896Z,6.30
2023-03-19T00:17:52.529Z,6.80
2023-03-19T00:20:22.211Z,6.87
2023-03-19T00:22:50.149Z,6.77
2023-03-19T00:25:18.253Z,6.07
2023-03-19T00:27:46.281Z,6.83
2023-03-19T00:30:15.080Z,6.23
2023-03-19T00:32:43.036Z,7.03
2023-03-19T00:35:12.598Z,6.03
2023-03-19T00:37:41.194Z,5.73
2023-03-19T00:40:11.974Z,5.60
2023-03-19T00:42:39.974Z,5.93
2023-03-19T00:45:09.101Z,5.97
2023-03-19T00:47:38.350Z,6.50
2023-03-19T00:50:07.144Z,6.40
2023-03-19T00:52:36.411Z,6.77
2023-03-19T00:55:04.416Z,6.57
2023-03-19T00:57:32.378Z,6.80
2023-03-19T01:00:00.270Z,7.37
2023-03-19T01:02:28.286Z,6.30
2023-03-19T01:04:56.247Z,5.93
2023-03-19T01:07:24.223Z,6.77
2023-03-19T01:09:53.585Z,6.83
2023-03-19T01:12:21.547Z,6.83
2023-03-19T01:14:49.477Z,6.80
2023-03-19T01:17:17.478Z,6.73
2023-03-19T01:19:45.436Z,6.20
2023-03-19T01:22:14.254Z,5.93
2023-03-19T01:24:42.127Z,6.33
2023-03-19T01:27:11.920Z,5.77
2023-03-19T01:29:39.936Z,5.07
2023-03-19T01:32:08.049Z,5.73
2023-03-19T01:34:36.714Z,6.30
2023-03-19T01:37:04.613Z,5.93
2023-03-19T01:39:32.826Z,5.90
2023-03-19T01:42:03.166Z,5.67
2023-03-19T01:44:33.897Z,5.90
2023-03-19T01:47:04.765Z,6.53
2023-03-19T01:49:32.893Z,6.80
2023-03-19T01:52:03.923Z,6.93
2023-03-19T01:54:33.526Z,6.73
2023-03-19T01:57:06.973Z,6.63
2023-03-19T01:59:38.879Z,6.20
2023-03-19T02:02:12.158Z,6.37
2023-03-19T02:04:42.885Z,6.37
2023-03-19T02:07:12.645Z,6.17
2023-03-19T02:09:42.066Z,6.27
2023-03-19T02:12:10.899Z,6.50
2023-03-19T02:14:40.315Z,6.03
2023-03-19T02:17:08.833Z,5.87
2023-03-19T02:19:50.542Z,6.50
2023-03-19T02:22:22.707Z,6.50
2023-03-19T02:24:55.027Z,6.67
2023-03-19T02:27:24.623Z,6.40
2023-03-19T02:29:52.562Z,6.83
2023-03-19T02:32:20.562Z,6.70
2023-03-19T02:34:49.468Z,6.33
2023-03-19T02:37:22.108Z,6.47
2023-03-19T02:39:55.889Z,6.63
2023-03-19T02:42:28.094Z,7.70
2023-03-19T02:44:56.481Z,7.60
2023-03-19T02:47:25.183Z,7.03
2023-03-19T02:49:53.059Z,6.93
2023-03-19T02:52:21.532Z,6.70
2023-03-19T02:54:49.577Z,6.80
2023-03-19T02:57:17.724Z,6.83
2023-03-19T02:59:47.822Z,6.83
2023-03-19T03:02:15.835Z,7.17
2023-03-19T03:04:43.811Z,6.80
2023-03-19T03:07:12.264Z,7.37
2023-03-19T03:09:40.244Z,8.57
2023-03-19T03:12:08.933Z,7.57
2023-03-19T03:14:36.898Z,8.83
2023-03-19T03:17:06.157Z,7.73
2023-03-19T03:19:34.216Z,6.90
2023-03-19T03:22:02.138Z,5.57
2023-03-19T03:24:30.334Z,5.53
2023-03-19T03:26:58.277Z,5.30
2023-03-19T03:29:26.770Z,5.57
2023-03-19T03:31:54.798Z,4.60
2023-03-19T03:34:24.194Z,4.63
2023-03-19T03:36:52.197Z,4.57
2023-03-19T03:39:20.180Z,4.60
2023-03-19T03:41:48.053Z,4.80
2023-03-19T03:44:15.942Z,5.30
2023-03-19T03:46:44.612Z,4.77
2023-03-19T03:49:12.509Z,4.17
2023-03-19T03:51:42.160Z,4.70
2023-03-19T03:54:10.053Z,4.60
2023-03-19T03:56:37.957Z,4.00
2023-03-19T03:59:05.994Z,4.47
2023-03-19T04:01:34.061Z,4.47
2023-03-19T04:04:02.037Z,4.43
2023-03-19T04:06:30.345Z,4.90
2023-03-19T04:08:59.679Z,4.57
2023-03-19T04:11:27.763Z,5.10
2023-03-19T04:13:56.667Z,4.63
2023-03-19T04:16:24.926Z,4.50
2023-03-19T04:18:52.870Z,4.33
2023-03-19T04:21:21.384Z,5.30
2023-03-19T04:23:49.407Z,4.50
2023-03-19T04:26:18.951Z,5.17
2023-03-19T04:28:47.197Z,4.90
2023-03-19T04:31:15.489Z,4.70
2023-03-19T04:33:43.465Z,5.43
2023-03-19T04:36:11.998Z,4.87
2023-03-19T04:38:39.894Z,5.30
2023-03-19T04:41:07.764Z,5.30
2023-03-19T04:43:37.088Z,4.70
2023-03-19T04:46:05.851Z,4.57
2023-03-19T04:48:33.832Z,5.03
2023-03-19T04:51:03.075Z,5.30
2023-03-19T04:53:31.401Z,4.77
2023-03-19T04:55:59.332Z,5.47
2023-03-19T04:58:27.650Z,5.10
2023-03-19T05:00:56.924Z,5.87
2023-03-19T05:03:26.258Z,5.43
2023-03-19T05:05:55.271Z,5.40
2023-03-19T05:08:23.194Z,5.87
2023-03-19T05:10:51.077Z,5.67
2023-03-19T05:13:21.531Z,5.57
2023-03-19T05:15:49.879Z,5.67
2023-03-19T05:18:19.395Z,6.03
2023-03-19T05:20:47.369Z,5.57
2023-03-19T05:23:15.370Z,5.50
2023-03-19T05:25:43.608Z,5.70
2023-03-19T05:28:11.601Z,6.03
2023-03-19T05:30:39.485Z,6.17
2023-03-19T05:33:07.423Z,6.03
2023-03-19T05:35:38.070Z,5.47
2023-03-19T05:38:06.430Z,5.63
2023-03-19T05:40:35.080Z,4.43
2023-03-19T05:43:03.174Z,4.60
2023-03-19T05:45:31.218Z,4.77
2023-03-19T05:47:59.170Z,3.87
2023-03-19T05:50:27.176Z,3.73
2023-03-19T05:52:56.738Z,3.57
2023-03-19T05:55:24.666Z,3.40
2023-03-19T05:57:53.371Z,3.47
2023-03-19T06:00:22.177Z,3.80
2023-03-19T06:02:52.226Z,3.70
2023-03-19T06:05:20.138Z,3.87
2023-03-19T06:07:51.049Z,3.50
2023-03-19T06:10:21.361Z,3.90
2023-03-19T06:12:49.250Z,3.87
2023-03-19T06:15:17.685Z,4.27
2023-03-19T06:17:45.901Z,4.23
2023-03-19T06:20:14.554Z,4.13
2023-03-19T06:22:44.049Z,4.50
2023-03-19T06:25:12.181Z,4.70
2023-03-19T06:27:41.445Z,4.57
2023-03-19T06:30:10.687Z,7.93
2023-03-19T06:32:38.763Z,5.00
2023-03-19T06:35:08.662Z,4.03
2023-03-19T06:37:36.544Z,5.00
2023-03-19T06:40:05.062Z,4.20
2023-03-19T06:42:33.061Z,4.87
2023-03-19T06:45:02.564Z,4.47
2023-03-19T06:47:31.130Z,4.20
2023-03-19T06:49:59.815Z,4.70
2023-03-19T06:52:27.815Z,4.10
2023-03-19T06:54:55.935Z,3.43
2023-03-19T06:57:23.806Z,5.10
2023-03-19T06:59:51.838Z,4.60
2023-03-19T07:02:21.091Z,3.90
2023-03-19T07:04:48.991Z,4.33
2023-03-19T07:07:16.876Z,4.30
2023-03-19T07:10:01.223Z,4.03
2023-03-19T07:12:31.312Z,4.30
2023-03-19T07:14:59.219Z,7.17
2023-03-19T07:17:28.515Z,4.67
2023-03-19T07:19:56.389Z,4.43
2023-03-19T07:22:24.276Z,26.97
2023-03-19T07:24:52.596Z,5.63
2023-03-19T07:27:21.018Z,4.10
2023-03-19T07:29:48.937Z,4.73
2023-03-19T07:32:17.369Z,4.93
2023-03-19T07:34:46.664Z,4.33
2023-03-19T07:37:14.527Z,4.33
2023-03-19T07:39:42.452Z,4.30
2023-03-19T07:42:10.490Z,5.37
2023-03-19T07:44:38.406Z,4.73
2023-03-19T07:47:08.199Z,5.43
2023-03-19T07:49:41.245Z,10.60
2023-03-19T07:52:11.043Z,7.93
2023-03-19T07:54:39.088Z,4.77
2023-03-19T07:57:07.097Z,5.13
2023-03-19T07:59:35.627Z,4.83
2023-03-19T08:02:03.577Z,4.73
2023-03-19T08:04:31.739Z,5.17
2023-03-19T08:06:59.714Z,5.10
2023-03-19T08:09:29.098Z,4.83
2023-03-19T08:11:57.548Z,4.70
2023-03-19T08:14:25.466Z,4.70
2023-03-19T08:16:53.544Z,5.07
2023-03-19T08:19:22.218Z,6.22
2023-03-19T08:21:50.208Z,5.07
2023-03-19T08:24:18.817Z,9.83
2023-03-19T08:26:48.743Z,4.47
2023-03-19T08:29:22.506Z,4.80
2023-03-19T08:31:50.379Z,6.00
2023-03-19T08:34:22.166Z,4.80
2023-03-19T08:36:50.619Z,4.90
2023-03-19T08:39:19.322Z,4.43
2023-03-19T08:41:48.676Z,4.93
2023-03-19T08:44:16.968Z,4.90
2023-03-19T08:46:45.062Z,5.17
2023-03-19T08:49:13.019Z,4.87
2023-03-19T08:51:41.169Z,4.63
2023-03-19T08:54:09.579Z,4.70
2023-03-19T08:56:37.785Z,5.20
2023-03-19T08:59:07.980Z,5.00
2023-03-19T09:01:37.043Z,4.73
2023-03-19T09:04:05.094Z,5.20
2023-03-19T09:06:33.100Z,4.77
2023-03-19T09:09:01.486Z,5.10
2023-03-19T09:11:30.145Z,5.30
2023-03-19T09:13:58.085Z,4.43
2023-03-19T09:16:27.455Z,4.67
2023-03-19T09:18:57.921Z,4.60
2023-03-19T09:21:27.298Z,4.83
2023-03-19T09:23:55.713Z,4.80
2023-03-19T09:26:23.568Z,4.00
2023-03-19T09:28:51.946Z,3.97
2023-03-19T09:31:20.054Z,3.63
2023-03-19T09:33:49.419Z,3.80
2023-03-19T09:36:17.440Z,4.10
2023-03-19T09:38:45.408Z,3.57
2023-03-19T09:41:24.260Z,3.53
2023-03-19T09:44:03.662Z,4.13
2023-03-19T09:46:39.690Z,4.00
2023-03-19T09:49:19.436Z,4.20
2023-03-19T09:51:51.647Z,4.00
2023-03-19T09:54:33.478Z,4.10
2023-03-19T09:57:02.479Z,3.83
2023-03-19T09:59:31.156Z,3.70
2023-03-19T10:02:10.725Z,3.90
2023-03-19T10:04:59.656Z,3.93
2023-03-19T10:07:38.554Z,4.22
2023-03-19T10:10:25.998Z,4.97
2023-03-19T10:13:01.681Z,4.80
2023-03-19T10:15:31.196Z,4.72
2023-03-19T10:18:04.594Z,4.43
2023-03-19T10:20:41.263Z,4.20
2023-03-19T10:23:30.398Z,4.18
2023-03-19T10:26:00.594Z,4.68
2023-03-19T10:28:30.129Z,4.55
2023-03-19T10:31:11.784Z,8.80
2023-03-19T10:33:46.124Z,5.20
2023-03-19T10:36:16.447Z,4.78
2023-03-19T10:38:45.459Z,4.60
2023-03-19T10:41:25.872Z,4.72
2023-03-19T10:43:56.203Z,4.65
2023-03-19T10:46:24.149Z,4.68
2023-03-19T10:48:52.151Z,5.13
2023-03-19T10:51:25.863Z,4.60
2023-03-19T10:53:55.591Z,4.55
2023-03-19T10:56:25.609Z,4.22
2023-03-19T10:59:01.918Z,4.68
2023-03-19T11:01:34.020Z,4.10
2023-03-19T11:04:03.966Z,4.47
2023-03-19T11:06:36.580Z,3.92
2023-03-19T11:09:16.593Z,4.20
2023-03-19T11:11:48.515Z,3.95
2023-03-19T11:14:20.856Z,4.18
2023-03-19T11:16:56.911Z,4.30
2023-03-19T11:19:26.700Z,4.40
2023-03-19T11:22:09.349Z,4.65
2023-03-19T11:24:39.380Z,7.28
2023-03-19T11:27:07.681Z,4.35
2023-03-19T11:29:41.806Z,4.50
2023-03-19T11:32:23.481Z,3.83
2023-03-19T11:34:55.290Z,3.75
2023-03-19T11:37:34.283Z,4.28
2023-03-19T11:40:11.051Z,4.03
2023-03-19T11:43:01.400Z,4.35
2023-03-19T11:45:40.777Z,4.63
2023-03-19T11:48:27.305Z,3.78
2023-03-19T11:50:59.888Z,3.92
2023-03-19T11:53:33.163Z,3.55
2023-03-19T11:56:13.640Z,3.47
2023-03-19T11:58:56.098Z,3.38
2023-03-19T12:01:39.360Z,3.83
2023-03-19T12:04:34.056Z,3.33
2023-03-19T12:07:11.683Z,3.45
2023-03-19T12:09:50.846Z,3.47
2023-03-19T12:12:26.953Z,3.33
2023-03-19T12:15:12.611Z,3.17
2023-03-19T12:17:52.948Z,3.53
2023-03-19T12:20:38.280Z,3.47
2023-03-19T12:23:18.377Z,3.42
2023-03-19T12:26:00.334Z,3.80
2023-03-19T12:28:31.734Z,3.47
2023-03-19T12:31:27.786Z,3.65
2023-03-19T12:34:10.160Z,3.33
2023-03-19T12:36:44.805Z,3.75
2023-03-19T12:39:16.737Z,3.97
2023-03-19T12:41:48.566Z,3.85
2023-03-19T12:44:22.940Z,3.90
2023-03-19T12:46:59.269Z,3.38
2023-03-19T12:49:31.662Z,3.78
2023-03-19T12:52:04.939Z,3.55
2023-03-19T12:54:37.174Z,3.28
2023-03-19T12:57:13.271Z,3.13
2023-03-19T12:59:47.675Z,3.75
2023-03-19T13:02:25.996Z,3.25
2023-03-19T13:04:57.557Z,3.40
2023-03-19T13:07:34.256Z,3.60
2023-03-19T13:10:08.142Z,3.40
2023-03-19T13:12:39.303Z,2.90
2023-03-19T13:15:14.233Z,2.90
2023-03-19T13:17:54.547Z,2.90
2023-03-19T13:20:33.052Z,3.17
2023-03-19T13:23:05.852Z,3.05
2023-03-19T13:25:38.279Z,3.20
2023-03-19T13:28:12.041Z,2.90
2023-03-19T13:30:42.382Z,2.78
2023-03-19T13:33:19.521Z,2.90
2023-03-19T13:35:51.515Z,2.75
2023-03-19T13:38:22.018Z,3.30
2023-03-19T13:40:54.491Z,3.03
2023-03-19T13:43:39.820Z,3.25
2023-03-19T13:46:32.400Z,3.00
2023-03-19T13:49:10.953Z,3.35
2023-03-19T13:51:39.434Z,2.80
2023-03-19T13:54:16.391Z,2.90
2023-03-19T13:57:06.951Z,2.95
2023-03-19T13:59:36.914Z,2.92
2023-03-19T14:02:59.842Z,3.10
2023-03-19T14:05:35.700Z,3.20
2023-03-19T14:08:18.465Z,2.92
2023-03-19T14:10:51.162Z,2.92
2023-03-19T14:13:27.410Z,2.70
2023-03-19T14:16:04.503Z,2.63
2023-03-19T14:18:34.926Z,2.70
2023-03-19T14:21:08.915Z,2.50
2023-03-19T14:23:46.332Z,2.78
2023-03-19T14:26:18.614Z,2.55
2023-03-19T14:29:00.128Z,2.97
2023-03-19T14:31:38.132Z,2.42
2023-03-19T14:34:20.729Z,2.80
2023-03-19T14:36:57.217Z,3.03
2023-03-19T14:39:31.254Z,2.72
2023-03-19T14:42:04.260Z,2.50
2023-03-19T14:45:07.737Z,2.47
2023-03-19T14:48:17.748Z,3.15
2023-03-19T14:51:23.815Z,2.60
2023-03-19T14:53:55.540Z,2.78
2023-03-19T14:56:28.281Z,2.67
2023-03-19T14:59:02.931Z,3.17
2023-03-19T15:01:32.928Z,3.13
2023-03-19T15:04:04.160Z,2.67
2023-03-19T15:06:35.132Z,4.55
2023-03-19T15:09:08.814Z,3.30
2023-03-19T15:12:00.667Z,2.90
2023-03-19T15:14:52.445Z,3.10
2023-03-19T15:17:25.362Z,2.60
2023-03-19T15:19:55.425Z,3.17
2023-03-19T15:22:27.891Z,3.20
2023-03-19T15:25:07.097Z,3.17
2023-03-19T15:27:35.074Z,2.85
2023-03-19T15:30:14.429Z,3.03
2023-03-19T15:33:02.996Z,3.33
2023-03-19T15:35:36.399Z,3.60
2023-03-19T15:38:10.342Z,3.15
2023-03-19T15:40:42.185Z,3.42
2023-03-19T15:43:12.762Z,2.80
2023-03-19T15:45:43.819Z,2.95
2023-03-19T15:48:20.154Z,2.50
2023-03-19T15:50:51.826Z,2.50
2023-03-19T15:53:22.669Z,2.38
2023-03-19T15:55:53.885Z,4.55
2023-03-19T15:58:24.866Z,2.63
2023-03-19T16:00:54.090Z,2.90
2023-03-19T16:03:26.650Z,2.83
2023-03-19T16:06:02.635Z,2.70
2023-03-19T16:08:31.829Z,3.22
2023-03-19T16:11:17.358Z,3.80
2023-03-19T16:13:57.038Z,3.97
2023-03-19T16:16:26.270Z,3.95
2023-03-19T16:18:55.686Z,2.90
2023-03-19T16:21:29.610Z,3.50
2023-03-19T16:24:00.693Z,3.83
2023-03-19T16:26:37.122Z,4.40
2023-03-19T16:29:17.857Z,4.22
2023-03-19T16:31:51.782Z,4.47
2023-03-19T16:34:26.786Z,6.07
2023-03-19T16:36:54.733Z,5.78
2023-03-19T16:39:27.497Z,5.50
2023-03-19T16:42:17.500Z,5.60
2023-03-19T16:44:48.282Z,5.15
2023-03-19T16:47:16.981Z,5.85
2023-03-19T16:49:44.933Z,12.30
2023-03-19T16:52:18.442Z,6.40
2023-03-19T16:54:46.863Z,5.53
2023-03-19T16:57:18.468Z,5.72
2023-03-19T16:59:47.761Z,5.20
2023-03-19T17:02:19.904Z,5.32
2023-03-19T17:04:48.264Z,4.50
2023-03-19T17:07:16.373Z,4.95
2023-03-19T17:09:44.319Z,5.22
2023-03-19T17:12:17.647Z,5.47
2023-03-19T17:14:45.695Z,6.13
2023-03-19T17:17:19.324Z,6.57
2023-03-19T17:19:48.079Z,6.97
2023-03-19T17:22:18.720Z,7.90
2023-03-19T17:24:46.748Z,8.60
2023-03-19T17:27:15.404Z,7.28
2023-03-19T17:29:47.413Z,7.40
2023-03-19T17:32:19.628Z,7.85
2023-03-19T17:34:48.203Z,7.45
2023-03-19T17:37:19.345Z,9.90
2023-03-19T17:39:47.662Z,23.67
2023-03-19T17:42:21.029Z,7.43
2023-03-19T17:44:50.433Z,7.13
2023-03-19T17:47:19.692Z,7.85
2023-03-19T17:49:48.733Z,8.50
2023-03-19T17:52:18.733Z,7.25
2023-03-19T17:54:46.859Z,9.63
2023-03-19T17:57:16.011Z,9.10
2023-03-19T17:59:44.046Z,8.35
2023-03-19T18:02:25.934Z,9.15
2023-03-19T18:04:53.953Z,9.05
2023-03-19T18:07:21.914Z,8.55
2023-03-19T18:09:49.855Z,8.55
2023-03-19T18:12:17.727Z,8.70
2023-03-19T18:14:45.982Z,9.00
2023-03-19T18:17:16.905Z,8.32
2023-03-19T18:19:49.215Z,8.30
2023-03-19T18:22:19.500Z,7.72
2023-03-19T18:24:47.624Z,8.75
2023-03-19T18:27:15.860Z,13.38
2023-03-19T18:29:43.801Z,11.65
2023-03-19T18:32:17.241Z,8.35
2023-03-19T18:34:46.513Z,7.78
2023-03-19T18:37:19.211Z,7.70
2023-03-19T18:39:47.230Z,8.18
2023-03-19T18:42:15.756Z,8.07
2023-03-19T18:44:43.936Z,7.95
2023-03-19T18:47:16.093Z,8.57
2023-03-19T18:49:46.066Z,7.50
2023-03-19T18:52:19.794Z,8.10
2023-03-19T18:54:47.725Z,8.33
2023-03-19T18:57:20.079Z,9.68
2023-03-19T18:59:48.191Z,8.30
2023-03-19T19:02:32.608Z,8.38
2023-03-19T19:05:00.712Z,8.13
2023-03-19T19:07:30.045Z,9.90
2023-03-19T19:09:58.012Z,6.68
2023-03-19T19:12:27.782Z,6.60
2023-03-19T19:14:58.764Z,7.10
2023-03-19T19:17:29.392Z,6.13
2023-03-19T19:19:57.591Z,7.07
2023-03-19T19:22:29.697Z,6.13
2023-03-19T19:24:59.029Z,6.15
2023-03-19T19:27:30.278Z,6.40
2023-03-19T19:29:58.251Z,7.07
2023-03-19T19:32:28.685Z,6.27
2023-03-19T19:34:59.119Z,6.90
2023-03-19T19:37:27.068Z,6.10
2023-03-19T19:39:55.460Z,7.93
2023-03-19T19:42:24.842Z,6.40
2023-03-19T19:44:55.873Z,6.53
2023-03-19T19:47:23.964Z,6.27
2023-03-19T19:49:52.018Z,8.80
2023-03-19T19:52:22.900Z,9.13
2023-03-19T19:54:51.976Z,7.10
2023-03-19T19:57:22.818Z,6.60
2023-03-19T19:59:53.450Z,6.13
2023-03-19T20:02:23.511Z,7.57
2023-03-19T20:04:51.546Z,8.13
2023-03-19T20:07:19.506Z,7.97
2023-03-19T20:09:48.054Z,6.53
2023-03-19T20:12:24.080Z,6.37
2023-03-19T20:14:53.627Z,6.17
2023-03-19T20:17:25.101Z,5.90
2023-03-19T20:19:53.066Z,6.33
2023-03-19T20:22:21.148Z,6.53
2023-03-19T20:24:51.244Z,5.20
2023-03-19T20:27:21.662Z,6.80
2023-03-19T20:29:50.720Z,5.67
2023-03-19T20:32:29.283Z,7.70
2023-03-19T20:34:57.205Z,8.57
2023-03-19T20:37:25.345Z,9.30
2023-03-19T20:39:53.308Z,9.80
2023-03-19T20:42:21.374Z,8.87
2023-03-19T20:44:49.697Z,7.73
2023-03-19T20:47:19.429Z,8.53
2023-03-19T20:49:50.459Z,8.27
2023-03-19T20:52:18.423Z,8.73
2023-03-19T20:54:46.385Z,7.83
2023-03-19T20:57:16.752Z,8.63
2023-03-19T20:59:46.973Z,8.80
2023-03-19T21:02:19.504Z,7.97
2023-03-19T21:04:49.772Z,9.67
2023-03-19T21:07:29.339Z,8.30
2023-03-19T21:09:57.983Z,8.90
2023-03-19T21:12:29.462Z,8.70
2023-03-19T21:14:57.925Z,8.40
2023-03-19T21:17:27.350Z,9.40
2023-03-19T21:19:56.935Z,8.53
2023-03-19T21:22:28.499Z,8.83
2023-03-19T21:25:03.356Z,7.93
2023-03-19T21:27:32.818Z,9.60
2023-03-19T21:30:01.026Z,9.17
2023-03-19T21:32:29.060Z,10.17
2023-03-19T21:34:58.537Z,10.60
2023-03-19T21:37:26.448Z,12.03
2023-03-19T21:39:54.381Z,8.87
2023-03-19T21:42:23.578Z,8.77
2023-03-19T21:44:59.455Z,10.43
2023-03-19T21:47:27.443Z,7.97
2023-03-19T21:49:55.441Z,6.03
2023-03-19T21:52:24.922Z,5.10
2023-03-19T21:54:52.858Z,5.50
2023-03-19T21:57:20.850Z,6.23
2023-03-19T21:59:48.855Z,4.93
2023-03-19T22:02:40.386Z,7.63
2023-03-19T22:05:19.613Z,6.47
2023-03-19T22:07:49.014Z,5.63
2023-03-19T22:10:17.265Z,5.47
2023-03-19T22:12:46.405Z,5.77
2023-03-19T22:15:21.331Z,4.77
2023-03-19T22:17:50.031Z,4.60
2023-03-19T22:20:19.777Z,4.90
2023-03-19T22:22:49.337Z,5.40
2023-03-19T22:25:18.596Z,5.03
2023-03-19T22:27:48.819Z,5.63
2023-03-19T22:30:35.792Z,6.03
2023-03-19T22:33:11.566Z,5.60
2023-03-19T22:35:39.665Z,7.50
2023-03-19T22:38:08.983Z,7.63
2023-03-19T22:40:38.441Z,7.50
2023-03-19T22:43:16.883Z,7.90
2023-03-19T22:45:45.111Z,8.00
2023-03-19T22:48:18.061Z,7.87
2023-03-19T22:50:45.947Z,7.37
2023-03-19T22:53:28.214Z,7.60
2023-03-19T22:55:56.464Z,7.20
2023-03-19T22:58:24.821Z,7.50
2023-03-19T23:00:53.762Z,7.50
2023-03-19T23:03:24.664Z,7.27
2023-03-19T23:05:54.477Z,7.17
2023-03-19T23:08:22.848Z,6.67
2023-03-19T23:10:53.463Z,7.10
2023-03-19T23:13:22.181Z,7.27
2023-03-19T23:15:53.837Z,8.57
2023-03-19T23:18:28.560Z,11.47
2023-03-19T23:20:58.142Z,11.47
2023-03-19T23:23:27.216Z,10.80
2023-03-19T23:25:57.380Z,12.07
2023-03-19T23:28:29.927Z,10.93
2023-03-19T23:30:58.720Z,11.37
2023-03-19T23:33:27.105Z,10.70
2023-03-19T23:35:55.214Z,12.17
2023-03-19T23:38:23.707Z,11.17
2023-03-19T23:40:52.840Z,12.43
2023-03-19T23:43:27.178Z,11.37
2023-03-19T23:45:56.456Z,10.90
2023-03-19T23:48:26.946Z,10.70
2023-03-19T23:50:54.845Z,11.33
2023-03-19T23:53:24.878Z,10.90
2023-03-19T23:55:56.553Z,10.93
2023-03-19T23:58:31.218Z,10.07
